createdAt,value
2023-04-20T00:01:24.843Z,5.53
2023-04-20T00:03:52.316Z,5.82
2023-04-20T00:06:21.768Z,5.60
2023-04-20T00:08:48.827Z,5.47
2023-04-20T00:11:15.710Z,5.35
2023-04-20T00:13:42.928Z,5.95
2023-04-20T00:16:09.881Z,6.68
2023-04-20T00:18:36.864Z,7.70
2023-04-20T00:21:04.016Z,6.03
2023-04-20T00:23:30.853Z,5.40
2023-04-20T00:25:57.844Z,5.28
2023-04-20T00:28:24.740Z,5.82
2023-04-20T00:30:51.615Z,5.63
2023-04-20T00:33:18.534Z,6.20
2023-04-20T00:35:45.602Z,5.93
2023-04-20T00:38:12.414Z,5.65
2023-04-20T00:40:39.289Z,5.40
2023-04-20T00:43:10.846Z,6.28
2023-04-20T00:45:37.747Z,5.75
2023-04-20T00:48:05.949Z,6.03
2023-04-20T00:50:34.353Z,6.05
2023-04-20T00:53:02.197Z,5.88
2023-04-20T00:55:30.741Z,6.20
2023-04-20T00:57:58.404Z,5.53
2023-04-20T01:00:26.449Z,6.07
2023-04-20T01:02:53.444Z,5.68
2023-04-20T01:05:21.415Z,5.85
2023-04-20T01:07:49.514Z,5.60
2023-04-20T01:10:16.470Z,5.30
2023-04-20T01:12:43.587Z,5.28
2023-04-20T01:15:11.444Z,5.63
2023-04-20T01:17:39.961Z,5.60
2023-04-20T01:20:14.979Z,5.75
2023-04-20T01:22:54.230Z,5.40
2023-04-20T01:25:21.517Z,5.57
2023-04-20T01:27:48.724Z,5.22
2023-04-20T01:30:17.263Z,5.78
2023-04-20T01:32:44.789Z,5.25
2023-04-20T01:35:12.156Z,5.38
2023-04-20T01:37:40.307Z,4.65
2023-04-20T01:40:10.356Z,5.20
2023-04-20T01:45:07.895Z,5.30
2023-04-20T01:47:36.947Z,5.35
2023-04-20T01:50:04.035Z,5.60
2023-04-20T01:52:30.882Z,5.07
2023-04-20T01:54:57.794Z,4.82
2023-04-20T01:57:24.914Z,4.72
2023-04-20T01:59:51.825Z,5.15
2023-04-20T02:02:18.781Z,4.72
2023-04-20T02:04:45.673Z,5.47
2023-04-20T02:07:12.572Z,5.35
2023-04-20T02:09:39.418Z,5.22
2023-04-20T02:12:06.325Z,5.05
2023-04-20T02:14:33.168Z,5.45
2023-04-20T02:17:01.050Z,4.22
2023-04-20T02:19:28.257Z,4.80
2023-04-20T02:21:55.194Z,4.68
2023-04-20T02:24:22.055Z,4.95
2023-04-20T02:26:48.828Z,5.07
2023-04-20T02:29:16.770Z,4.88
2023-04-20T02:31:44.115Z,4.85
2023-04-20T02:34:11.088Z,5.28
2023-04-20T02:36:38.078Z,5.40
2023-04-20T02:39:05.817Z,5.43
2023-04-20T02:41:34.109Z,5.90
2023-04-20T02:44:02.618Z,5.57
2023-04-20T02:46:29.787Z,5.25
2023-04-20T02:48:56.951Z,4.97
2023-04-20T02:51:24.600Z,4.72
2023-04-20T02:53:52.054Z,4.78
2023-04-20T02:56:23.773Z,4.53
2023-04-20T02:58:54.848Z,5.55
2023-04-20T03:01:42.115Z,4.53
2023-04-20T03:04:13.867Z,4.65
2023-04-20T03:06:50.707Z,5.00
2023-04-20T03:09:22.984Z,5.25
2023-04-20T03:12:13.399Z,5.60
2023-04-20T03:14:55.009Z,6.32
2023-04-20T03:17:29.333Z,5.32
2023-04-20T03:19:56.578Z,5.45
2023-04-20T03:22:24.176Z,5.68
2023-04-20T03:24:54.783Z,4.78
2023-04-20T03:27:41.995Z,5.30
2023-04-20T03:30:12.713Z,5.05
2023-04-20T03:32:41.351Z,4.40
2023-04-20T03:35:09.087Z,3.90
2023-04-20T03:37:37.902Z,4.85
2023-04-20T03:40:08.227Z,4.47
2023-04-20T03:42:35.363Z,4.97
2023-04-20T03:45:02.165Z,5.30
2023-04-20T03:47:29.205Z,5.22
2023-04-20T03:49:56.115Z,5.15
2023-04-20T03:52:22.932Z,5.05
2023-04-20T03:54:50.317Z,5.18
2023-04-20T03:57:17.357Z,5.28
2023-04-20T03:59:44.487Z,5.95
2023-04-20T04:02:16.750Z,5.15
2023-04-20T04:07:12.940Z,4.97
2023-04-20T04:09:41.790Z,5.22
2023-04-20T04:12:09.559Z,5.00
2023-04-20T04:14:36.462Z,5.65
2023-04-20T04:17:04.123Z,4.82
2023-04-20T04:19:33.477Z,4.65
2023-04-20T04:22:01.233Z,5.00
2023-04-20T04:24:33.460Z,4.93
2023-04-20T04:27:06.142Z,5.00
2023-04-20T04:29:38.700Z,5.10
2023-04-20T04:32:09.587Z,4.82
2023-04-20T04:34:38.458Z,5.10
2023-04-20T04:37:05.875Z,4.75
2023-04-20T04:39:42.968Z,5.30
2023-04-20T04:42:17.469Z,4.40
2023-04-20T04:44:44.977Z,5.13
2023-04-20T04:47:17.922Z,5.47
2023-04-20T04:49:45.541Z,5.90
2023-04-20T04:52:13.286Z,5.85
2023-04-20T04:54:40.325Z,5.45
2023-04-20T04:57:07.280Z,5.22
2023-04-20T04:59:34.140Z,6.10
2023-04-20T05:02:01.075Z,6.13
2023-04-20T05:04:28.086Z,5.60
2023-04-20T05:06:55.032Z,6.07
2023-04-20T05:09:21.973Z,6.00
2023-04-20T05:11:48.883Z,6.63
2023-04-20T05:14:15.926Z,6.43
2023-04-20T05:16:42.873Z,7.45
2023-04-20T05:19:09.818Z,6.47
2023-04-20T05:21:38.170Z,6.72
2023-04-20T05:24:06.333Z,6.13
2023-04-20T05:26:33.245Z,6.00
2023-04-20T05:29:00.335Z,7.10
2023-04-20T05:31:27.220Z,7.55
2023-04-20T05:33:54.128Z,7.15
2023-04-20T05:36:21.117Z,7.20
2023-04-20T05:38:47.971Z,7.30
2023-04-20T05:41:14.858Z,6.22
2023-04-20T05:43:41.673Z,6.68
2023-04-20T05:46:08.565Z,5.68
2023-04-20T05:48:35.459Z,5.82
2023-04-20T05:51:02.322Z,6.47
2023-04-20T05:53:29.221Z,6.20
2023-04-20T05:55:56.183Z,6.15
2023-04-20T05:58:23.225Z,6.30
2023-04-20T06:00:50.145Z,6.05
2023-04-20T06:03:17.162Z,6.00
2023-04-20T06:05:44.403Z,6.32
2023-04-20T06:08:11.465Z,6.32
2023-04-20T06:10:38.619Z,6.43
2023-04-20T06:13:05.842Z,6.15
2023-04-20T06:15:33.018Z,7.38
2023-04-20T06:18:01.590Z,6.72
2023-04-20T06:20:28.800Z,6.28
2023-04-20T06:22:57.121Z,6.63
2023-04-20T06:25:24.022Z,7.28
2023-04-20T06:27:52.583Z,7.05
2023-04-20T06:30:19.963Z,6.53
2023-04-20T06:32:46.893Z,6.10
2023-04-20T06:35:14.138Z,6.10
2023-04-20T06:37:40.987Z,7.07
2023-04-20T06:40:08.850Z,6.68
2023-04-20T06:42:36.448Z,6.70
2023-04-20T06:45:04.255Z,5.93
2023-04-20T06:47:34.195Z,6.35
2023-04-20T06:52:28.815Z,6.03
2023-04-20T06:54:55.907Z,5.85
2023-04-20T06:57:22.872Z,7.95
2023-04-20T06:59:49.671Z,8.30
2023-04-20T07:02:16.622Z,6.93
2023-04-20T07:04:43.482Z,7.55
2023-04-20T07:07:10.429Z,8.38
2023-04-20T07:09:37.294Z,7.55
2023-04-20T07:12:04.231Z,6.95
2023-04-20T07:14:31.007Z,6.97
2023-04-20T07:16:57.877Z,6.20
2023-04-20T07:19:24.765Z,6.28
2023-04-20T07:21:51.615Z,5.63
2023-04-20T07:24:18.577Z,7.00
2023-04-20T07:26:45.755Z,6.20
2023-04-20T07:29:12.600Z,6.00
2023-04-20T07:31:39.490Z,5.38
2023-04-20T07:34:06.945Z,6.00
2023-04-20T07:36:34.346Z,5.65
2023-04-20T07:39:01.176Z,5.78
2023-04-20T07:41:27.981Z,5.82
2023-04-20T07:43:54.884Z,5.57
2023-04-20T07:46:22.953Z,5.93
2023-04-20T07:48:50.092Z,5.80
2023-04-20T07:51:17.191Z,5.40
2023-04-20T07:53:44.159Z,5.68
2023-04-20T07:58:55.848Z,6.65
2023-04-20T08:01:25.960Z,4.95
2023-04-20T08:03:55.038Z,6.30
2023-04-20T08:06:22.336Z,5.85
2023-04-20T08:08:49.209Z,6.00
2023-04-20T08:11:17.264Z,6.30
2023-04-20T08:13:44.665Z,6.05
2023-04-20T08:16:11.715Z,5.25
2023-04-20T08:18:38.640Z,5.78
2023-04-20T08:21:05.577Z,5.72
2023-04-20T08:23:32.356Z,5.18
2023-04-20T08:25:59.285Z,5.10
2023-04-20T08:28:33.313Z,6.30
2023-04-20T08:31:01.386Z,4.85
2023-04-20T08:33:28.329Z,5.15
2023-04-20T08:35:55.424Z,4.90
2023-04-20T08:38:32.909Z,5.30
2023-04-20T08:41:01.056Z,5.30
2023-04-20T08:43:28.089Z,5.53
2023-04-20T08:45:59.055Z,5.20
2023-04-20T08:48:29.144Z,5.28
2023-04-20T08:50:56.151Z,5.20
2023-04-20T08:53:23.034Z,5.30
2023-04-20T08:55:50.784Z,4.85
2023-04-20T08:58:18.174Z,5.20
2023-04-20T09:00:48.977Z,4.75
2023-04-20T09:03:16.169Z,4.75
2023-04-20T09:05:45.040Z,4.80
2023-04-20T09:08:11.962Z,4.68
2023-04-20T09:10:42.061Z,4.72
2023-04-20T09:13:10.184Z,4.20
2023-04-20T09:15:37.118Z,4.40
2023-04-20T09:18:14.480Z,4.78
2023-04-20T09:20:41.455Z,4.93
2023-04-20T09:23:16.518Z,4.30
2023-04-20T09:25:46.236Z,4.20
2023-04-20T09:28:16.802Z,4.68
2023-04-20T09:30:46.420Z,4.50
2023-04-20T09:33:14.467Z,4.38
2023-04-20T09:35:44.032Z,4.22
2023-04-20T09:38:14.889Z,5.10
2023-04-20T09:40:41.820Z,4.10
2023-04-20T09:43:26.011Z,4.32
2023-04-20T09:45:54.251Z,4.15
2023-04-20T09:48:21.755Z,4.35
2023-04-20T09:50:50.947Z,3.70
2023-04-20T09:53:19.483Z,4.15
2023-04-20T09:55:51.274Z,3.47
2023-04-20T09:58:20.305Z,3.70
2023-04-20T10:00:47.485Z,4.75
2023-04-20T10:03:21.726Z,4.18
2023-04-20T10:05:49.363Z,3.92
2023-04-20T10:08:17.195Z,4.18
2023-04-20T10:10:49.089Z,4.40
2023-04-20T10:13:21.766Z,4.38
2023-04-20T10:15:48.908Z,3.85
2023-04-20T10:18:20.493Z,4.30
2023-04-20T10:20:47.928Z,3.75
2023-04-20T10:23:16.162Z,4.13
2023-04-20T10:25:45.362Z,4.13
2023-04-20T10:28:12.718Z,4.07
2023-04-20T10:30:51.000Z,4.10
2023-04-20T10:33:18.495Z,3.88
2023-04-20T10:35:54.907Z,4.20
2023-04-20T10:38:29.705Z,4.13
2023-04-20T10:40:56.763Z,3.50
2023-04-20T10:43:23.712Z,3.80
2023-04-20T10:45:51.054Z,3.80
2023-04-20T10:48:18.938Z,4.13
2023-04-20T10:50:46.139Z,4.13
2023-04-20T10:53:21.694Z,4.63
2023-04-20T10:55:58.930Z,4.10
2023-04-20T10:58:27.067Z,4.45
2023-04-20T11:00:58.503Z,3.80
2023-04-20T11:03:27.158Z,4.15
2023-04-20T11:05:54.108Z,4.10
2023-04-20T11:08:20.959Z,4.32
2023-04-20T11:10:48.435Z,4.18
2023-04-20T11:13:22.696Z,4.30
2023-04-20T11:15:49.614Z,4.30
2023-04-20T11:18:16.501Z,4.50
2023-04-20T11:20:56.869Z,4.07
2023-04-20T11:23:27.381Z,4.35
2023-04-20T11:25:56.560Z,4.40
2023-04-20T11:28:23.799Z,3.53
2023-04-20T11:30:50.931Z,3.92
2023-04-20T11:33:29.141Z,3.85
2023-04-20T11:35:57.714Z,3.85
2023-04-20T11:38:32.349Z,3.63
2023-04-20T11:41:04.394Z,3.40
2023-04-20T11:43:32.270Z,3.60
2023-04-20T11:46:02.651Z,3.20
2023-04-20T11:48:32.845Z,3.42
2023-04-20T11:50:59.644Z,3.22
2023-04-20T11:53:26.725Z,3.10
2023-04-20T11:55:53.495Z,2.92
2023-04-20T11:58:20.356Z,2.72
2023-04-20T12:00:47.183Z,2.80
2023-04-20T12:03:14.636Z,2.50
2023-04-20T12:05:43.149Z,3.00
2023-04-20T12:08:10.238Z,3.50
2023-04-20T12:10:37.039Z,3.40
2023-04-20T12:13:03.964Z,3.00
2023-04-20T12:15:31.082Z,2.67
2023-04-20T12:17:58.207Z,2.78
2023-04-20T12:20:25.325Z,2.03
2023-04-20T12:22:52.267Z,2.72
2023-04-20T12:25:19.562Z,2.50
2023-04-20T12:27:48.159Z,2.33
2023-04-20T12:30:16.672Z,2.40
2023-04-20T12:32:43.615Z,2.30
2023-04-20T12:35:10.724Z,2.38
2023-04-20T12:37:37.540Z,2.40
2023-04-20T12:40:06.376Z,2.17
2023-04-20T12:42:33.273Z,1.90
2023-04-20T12:45:00.040Z,1.77
2023-04-20T12:47:26.896Z,1.70
2023-04-20T12:49:54.591Z,1.45
2023-04-20T12:52:21.509Z,1.38
2023-04-20T12:54:48.397Z,2.03
2023-04-20T12:57:15.251Z,1.45
2023-04-20T12:59:42.955Z,1.42
2023-04-20T13:02:09.827Z,1.67
2023-04-20T13:04:37.099Z,1.52
2023-04-20T13:07:04.028Z,1.77
2023-04-20T13:09:30.893Z,1.60
2023-04-20T13:11:57.996Z,1.83
2023-04-20T13:14:25.727Z,1.50
2023-04-20T13:16:55.140Z,1.67
2023-04-20T13:19:22.586Z,1.33
2023-04-20T13:21:49.459Z,2.13
2023-04-20T13:24:16.482Z,1.30
2023-04-20T13:26:43.479Z,1.63
2023-04-20T13:29:10.494Z,1.75
2023-04-20T13:31:37.713Z,1.60
2023-04-20T13:34:04.794Z,1.60
2023-04-20T13:36:32.739Z,1.85
2023-04-20T13:39:00.829Z,1.75
2023-04-20T13:41:27.884Z,1.50
2023-04-20T13:43:54.726Z,1.42
2023-04-20T13:46:21.770Z,1.50
2023-04-20T13:48:48.671Z,1.40
2023-04-20T13:51:15.618Z,1.85
2023-04-20T13:53:42.573Z,1.45
2023-04-20T13:56:09.398Z,1.90
2023-04-20T13:58:36.312Z,1.30
2023-04-20T14:01:16.342Z,1.58
2023-04-20T14:03:43.776Z,1.70
2023-04-20T14:06:10.819Z,1.50
2023-04-20T14:08:37.876Z,1.50
2023-04-20T14:11:04.765Z,1.50
2023-04-20T14:13:32.042Z,1.38
2023-04-20T14:15:59.000Z,1.30
2023-04-20T14:18:25.751Z,1.35
2023-04-20T14:20:52.681Z,1.30
2023-04-20T14:23:19.766Z,1.20
2023-04-20T14:25:46.660Z,1.27
2023-04-20T14:28:15.065Z,1.10
2023-04-20T14:30:43.236Z,0.88
2023-04-20T14:33:10.100Z,0.98
2023-04-20T14:35:37.147Z,1.13
2023-04-20T14:38:04.069Z,1.00
2023-04-20T14:40:31.704Z,1.10
2023-04-20T14:42:58.582Z,1.25
2023-04-20T14:45:25.510Z,1.02
2023-04-20T14:47:54.406Z,1.23
2023-04-20T14:50:22.471Z,1.17
2023-04-20T14:52:49.375Z,1.10
2023-04-20T14:55:16.642Z,1.83
2023-04-20T14:57:43.469Z,1.25
2023-04-20T15:00:11.246Z,1.50
2023-04-20T15:02:38.499Z,1.55
2023-04-20T15:05:10.018Z,1.45
2023-04-20T15:07:37.593Z,1.10
2023-04-20T15:10:05.238Z,1.27
2023-04-20T15:12:32.060Z,1.30
2023-04-20T15:14:58.894Z,1.20
2023-04-20T15:17:25.843Z,1.38
2023-04-20T15:19:52.775Z,1.23
2023-04-20T15:22:19.678Z,1.10
2023-04-20T15:24:46.506Z,1.52
2023-04-20T15:27:13.435Z,1.05
2023-04-20T15:29:40.314Z,1.10
2023-04-20T15:32:07.584Z,1.13
2023-04-20T15:34:34.563Z,1.20
2023-04-20T15:37:01.393Z,1.00
2023-04-20T15:39:28.256Z,1.20
2023-04-20T15:41:55.108Z,1.10
2023-04-20T15:44:22.068Z,1.10
2023-04-20T15:46:48.902Z,1.58
2023-04-20T15:49:16.123Z,1.08
2023-04-20T15:51:44.368Z,1.00
2023-04-20T15:54:11.343Z,1.40
2023-04-20T15:56:38.133Z,1.10
2023-04-20T15:59:05.029Z,0.90
2023-04-20T16:01:33.571Z,1.10
2023-04-20T16:04:00.632Z,1.10
2023-04-20T16:06:27.997Z,1.00
2023-04-20T16:08:55.017Z,1.10
2023-04-20T16:11:21.909Z,0.90
2023-04-20T16:13:48.793Z,1.10
2023-04-20T16:16:16.165Z,1.00
2023-04-20T16:18:43.125Z,1.10
2023-04-20T16:21:10.024Z,1.35
2023-04-20T16:23:36.949Z,1.00
2023-04-20T16:26:04.214Z,1.27
2023-04-20T16:28:31.523Z,0.80
2023-04-20T16:30:58.819Z,1.13
2023-04-20T16:33:26.152Z,0.70
2023-04-20T16:35:52.933Z,0.77
2023-04-20T16:38:20.182Z,0.73
2023-04-20T16:40:46.996Z,0.80
2023-04-20T16:43:13.839Z,0.70
2023-04-20T16:45:41.398Z,0.85
2023-04-20T16:48:08.467Z,1.15
2023-04-20T16:50:37.456Z,0.90
2023-04-20T16:53:05.558Z,0.82
2023-04-20T16:55:32.495Z,0.80
2023-04-20T16:58:02.024Z,0.93
2023-04-20T17:00:32.752Z,0.73
2023-04-20T17:03:03.538Z,0.80
2023-04-20T17:05:30.499Z,0.80
2023-04-20T17:07:57.506Z,0.80
2023-04-20T17:10:25.254Z,0.90
2023-04-20T17:12:52.135Z,1.00
2023-04-20T17:15:18.957Z,0.90
2023-04-20T17:17:45.881Z,0.90
2023-04-20T17:20:12.947Z,0.80
2023-04-20T17:22:39.717Z,0.80
2023-04-20T17:25:07.902Z,0.73
2023-04-20T17:27:34.909Z,0.65
2023-04-20T17:30:02.066Z,0.68
2023-04-20T17:32:28.964Z,0.80
2023-04-20T17:34:55.962Z,0.75
2023-04-20T17:37:23.335Z,0.50
2023-04-20T17:39:50.258Z,0.98
2023-04-20T17:42:17.646Z,0.70
2023-04-20T17:44:44.520Z,0.73
2023-04-20T17:47:14.760Z,0.90
2023-04-20T17:49:41.767Z,0.80
2023-04-20T17:52:12.392Z,0.90
2023-04-20T17:54:39.283Z,0.80
2023-04-20T17:57:07.083Z,0.73
2023-04-20T17:59:34.045Z,0.82
2023-04-20T18:02:01.008Z,0.85
2023-04-20T18:04:28.218Z,0.85
2023-04-20T18:06:55.281Z,0.90
2023-04-20T18:09:22.087Z,0.70
2023-04-20T18:11:49.043Z,0.60
2023-04-20T18:14:16.109Z,0.60
2023-04-20T18:16:43.249Z,0.80
2023-04-20T18:19:10.133Z,0.77
2023-04-20T18:21:36.959Z,0.70
2023-04-20T18:24:04.666Z,0.88
2023-04-20T18:26:31.613Z,0.95
2023-04-20T18:28:58.947Z,0.80
2023-04-20T18:31:25.827Z,1.10
2023-04-20T18:33:52.678Z,1.10
2023-04-20T18:36:19.551Z,0.90
2023-04-20T18:38:46.458Z,1.33
2023-04-20T18:41:13.388Z,1.52
2023-04-20T18:43:40.510Z,1.35
2023-04-20T18:46:07.732Z,1.42
2023-04-20T18:48:34.608Z,1.27
2023-04-20T18:51:01.800Z,1.42
2023-04-20T18:53:29.600Z,1.40
2023-04-20T18:55:59.127Z,1.23
2023-04-20T18:58:26.025Z,1.13
2023-04-20T19:00:52.926Z,1.10
2023-04-20T19:03:20.099Z,0.90
2023-04-20T19:05:47.031Z,0.80
2023-04-20T19:08:13.850Z,1.00
2023-04-20T19:10:40.874Z,1.08
2023-04-20T19:13:07.676Z,1.00
2023-04-20T19:15:34.795Z,1.52
2023-04-20T19:18:01.836Z,1.30
2023-04-20T19:20:28.802Z,1.23
2023-04-20T19:22:55.708Z,1.35
2023-04-20T19:25:22.603Z,1.52
2023-04-20T19:27:49.645Z,1.63
2023-04-20T19:30:16.509Z,1.67
2023-04-20T19:32:43.401Z,1.20
2023-04-20T19:35:10.461Z,1.40
2023-04-20T19:37:37.391Z,1.30
2023-04-20T19:40:06.010Z,1.20
2023-04-20T19:42:32.896Z,1.17
2023-04-20T19:44:59.885Z,1.10
2023-04-20T19:47:27.354Z,1.13
2023-04-20T19:49:54.350Z,0.95
2023-04-20T19:52:21.335Z,1.20
2023-04-20T19:54:48.339Z,1.00
2023-04-20T19:57:15.317Z,0.88
2023-04-20T19:59:42.581Z,1.20
2023-04-20T20:02:09.545Z,1.40
2023-04-20T20:04:37.817Z,1.30
2023-04-20T20:07:05.068Z,1.20
2023-04-20T20:09:31.883Z,1.00
2023-04-20T20:12:01.051Z,1.27
2023-04-20T20:14:27.915Z,1.10
2023-04-20T20:16:56.678Z,1.20
2023-04-20T20:19:23.910Z,1.20
2023-04-20T20:21:51.142Z,1.45
2023-04-20T20:24:18.055Z,1.30
2023-04-20T20:26:45.122Z,1.30
2023-04-20T20:29:11.983Z,1.40
2023-04-20T20:31:38.955Z,1.40
2023-04-20T20:34:07.292Z,1.27
2023-04-20T20:39:05.251Z,1.17
2023-04-20T20:41:32.950Z,1.27
2023-04-20T20:44:00.385Z,1.38
2023-04-20T20:46:27.394Z,1.38
2023-04-20T20:48:55.142Z,1.33
2023-04-20T20:51:22.014Z,1.20
2023-04-20T20:53:48.908Z,1.48
2023-04-20T20:56:15.802Z,1.95
2023-04-20T20:58:42.839Z,1.38
2023-04-20T21:01:09.736Z,1.48
2023-04-20T21:03:37.058Z,1.35
2023-04-20T21:06:04.362Z,1.50
2023-04-20T21:08:31.152Z,1.55
2023-04-20T21:10:58.014Z,1.30
2023-04-20T21:13:25.223Z,1.40
2023-04-20T21:15:52.122Z,1.30
2023-04-20T21:18:19.094Z,1.50
2023-04-20T21:20:45.931Z,1.20
2023-04-20T21:23:12.735Z,1.40
2023-04-20T21:25:39.604Z,2.15
2023-04-20T21:28:06.413Z,1.40
2023-04-20T21:30:33.367Z,1.38
2023-04-20T21:33:00.262Z,1.38
2023-04-20T21:35:27.156Z,1.60
2023-04-20T21:37:53.954Z,1.30
2023-04-20T21:40:20.822Z,1.65
2023-04-20T21:42:47.678Z,1.30
2023-04-20T21:45:14.552Z,1.50
2023-04-20T21:47:41.418Z,1.23
2023-04-20T21:50:08.555Z,1.70
2023-04-20T21:52:35.454Z,1.30
2023-04-20T21:55:02.330Z,1.75
2023-04-20T21:57:29.145Z,1.60
2023-04-20T21:59:55.965Z,1.60
2023-04-20T22:02:23.114Z,1.63
2023-04-20T22:04:50.929Z,1.48
2023-04-20T22:07:18.674Z,2.00
2023-04-20T22:09:45.640Z,1.50
2023-04-20T22:12:12.497Z,2.25
2023-04-20T22:14:39.605Z,1.70
2023-04-20T22:17:09.524Z,1.60
2023-04-20T22:19:36.529Z,1.80
2023-04-20T22:22:03.406Z,1.80
2023-04-20T22:24:30.283Z,1.50
2023-04-20T22:26:57.599Z,1.50
2023-04-20T22:29:24.481Z,1.58
2023-04-20T22:31:51.388Z,1.83
2023-04-20T22:34:18.195Z,1.50
2023-04-20T22:36:45.083Z,1.50
2023-04-20T22:39:11.957Z,1.70
2023-04-20T22:41:38.771Z,2.03
2023-04-20T22:44:06.160Z,1.60
2023-04-20T22:46:33.173Z,1.90
2023-04-20T22:49:00.125Z,1.50
2023-04-20T22:51:28.636Z,1.90
2023-04-20T22:53:55.938Z,1.45
2023-04-20T22:56:24.485Z,1.70
2023-04-20T22:58:51.330Z,1.73
2023-04-20T23:01:18.178Z,1.63
2023-04-20T23:03:45.201Z,1.63
2023-04-20T23:06:12.167Z,1.80
2023-04-20T23:08:39.855Z,1.50
2023-04-20T23:11:06.982Z,1.63
2023-04-20T23:13:34.343Z,1.70
2023-04-20T23:16:01.208Z,1.60
2023-04-20T23:18:28.048Z,1.65
2023-04-20T23:20:54.866Z,1.80
2023-04-20T23:23:21.741Z,1.90
2023-04-20T23:25:48.580Z,1.75
2023-04-20T23:28:15.565Z,1.92
2023-04-20T23:30:42.411Z,1.70
2023-04-20T23:33:09.399Z,2.42
2023-04-20T23:35:39.288Z,2.40
2023-04-20T23:38:06.156Z,2.30
2023-04-20T23:40:33.071Z,2.15
2023-04-20T23:42:59.989Z,2.00
2023-04-20T23:45:26.922Z,1.90
2023-04-20T23:47:53.871Z,2.28
2023-04-20T23:50:20.863Z,2.10
2023-04-20T23:52:47.668Z,2.20
2023-04-20T23:55:14.513Z,1.73
2023-04-20T23:57:41.350Z,2.17
